Time;durP1;ratioP1;P1;durP2;ratioP2;P2;SDS_P1;SDS_P2;PMS_P1;PMS_P2;Temp;Humidity;BMP_temperature;BMP_pressure;BME280_temperature;BME280_humidity;BME280_pressure;Samples;Min_cycle;Max_cycle;Signal;HPM_P1;HPM_P2
2022/06/14 00:01:14;;;;;;;8.13;1.83;;;;;;;11.33;100.00;99956.75;5101971;28;20131;-63
2022/06/14 00:04:18;;;;;;;3.15;1.10;;;;;;;11.33;100.00;99960.25;5102673;27;20070;-62
2022/06/14 00:07:20;;;;;;;;;;;;;;;11.41;100.00;99955.69;5115983;27;20093;-63
2022/06/14 00:10:05;;;;;;;7.63;1.30;;;;;;;11.37;100.00;99961.88;5105515;28;19924;-62
2022/06/14 00:12:50;;;;;;;4.13;1.25;;;;;;;11.45;100.00;99967.81;5106991;27;20035;-62
2022/06/14 00:15:34;;;;;;;5.70;1.60;;;;;;;11.46;100.00;99966.03;5108539;27;20055;-62
2022/06/14 00:18:19;;;;;;;2.28;1.00;;;;;;;11.38;100.00;99973.25;5106148;27;20052;-63
2022/06/14 00:21:04;;;;;;;2.90;1.15;;;;;;;11.36;100.00;99968.03;5105214;27;20040;-62
2022/06/14 00:23:49;;;;;;;3.88;1.08;;;;;;;11.32;100.00;99968.16;5109521;27;20040;-63
2022/06/14 00:26:33;;;;;;;2.90;1.10;;;;;;;11.30;100.00;99968.19;5104449;27;20097;-64
2022/06/14 00:29:18;;;;;;;2.85;1.08;;;;;;;11.30;100.00;99968.19;5110097;27;20768;-62
2022/06/14 00:32:02;;;;;;;6.68;1.05;;;;;;;11.25;100.00;99963.97;5106776;28;20101;-64
2022/06/14 00:34:47;;;;;;;1.98;1.08;;;;;;;11.27;100.00;99972.66;5102856;27;20043;-66
2022/06/14 00:37:32;;;;;;;3.95;1.05;;;;;;;11.19;100.00;99984.19;5106016;27;20031;-63
2022/06/14 00:40:21;;;;;;;2.90;1.13;;;;;;;11.10;100.00;99979.16;5104760;27;20062;-63
2022/06/14 00:43:15;;;;;;;4.22;1.02;;;;;;;11.04;100.00;99988.94;5107697;27;20036;-63
2022/06/14 00:46:13;;;;;;;2.78;1.10;;;;;;;11.05;100.00;99988.94;5106449;27;20051;-62
2022/06/14 00:49:06;;;;;;;5.50;1.55;;;;;;;10.92;100.00;99990.09;5109468;27;20062;-61
2022/06/14 00:51:59;;;;;;;3.83;1.40;;;;;;;10.97;100.00;100002.19;5122974;27;20036;-62
2022/06/14 00:54:48;;;;;;;3.20;1.45;;;;;;;10.85;100.00;99999.00;5102933;27;20039;-62
2022/06/14 00:57:38;;;;;;;2.50;1.25;;;;;;;10.87;100.00;99999.84;5104131;28;20040;-62
2022/06/14 01:00:28;;;;;;;3.80;1.52;;;;;;;10.80;100.00;100004.34;5113094;27;20047;-62
2022/06/14 01:03:20;;;;;;;3.60;1.52;;;;;;;10.73;100.00;100011.50;5107876;27;20062;-62
2022/06/14 01:06:20;;;;;;;3.50;1.33;;;;;;;10.76;100.00;100007.94;5104571;28;20035;-63
2022/06/14 01:09:09;;;;;;;2.03;1.40;;;;;;;10.70;100.00;100002.84;5107572;27;20487;-61
2022/06/14 01:12:17;;;;;;;3.40;1.23;;;;;;;10.58;100.00;100001.34;5105619;27;20468;-62
2022/06/14 01:15:09;;;;;;;2.35;0.85;;;;;;;10.49;100.00;99989.31;5104896;27;20035;-63
2022/06/14 01:18:02;;;;;;;3.27;1.20;;;;;;;10.58;100.00;100003.09;5111461;27;20043;-62
2022/06/14 01:20:46;;;;;;;2.87;0.87;;;;;;;10.46;100.00;99997.25;5102699;27;20063;-62
2022/06/14 01:23:31;;;;;;;7.43;1.42;;;;;;;10.48;100.00;99992.81;5106046;27;20040;-62
2022/06/14 01:26:22;;;;;;;4.82;1.42;;;;;;;10.46;100.00;100004.22;5101365;27;20040;-62
2022/06/14 01:29:07;;;;;;;2.20;1.00;;;;;;;10.43;100.00;100007.78;5103386;28;20058;-63
2022/06/14 01:31:59;;;;;;;1.77;1.30;;;;;;;10.39;100.00;100007.88;5103074;27;20084;-62
2022/06/14 01:34:49;;;;;;;3.17;1.42;;;;;;;10.31;100.00;100002.81;5103307;28;20539;-62
2022/06/14 01:37:34;;;;;;;2.95;1.40;;;;;;;10.30;100.00;100003.69;5101967;27;20040;-62
2022/06/14 01:40:24;;;;;;;2.25;1.10;;;;;;;10.20;100.00;100010.81;5102177;27;20043;-62
2022/06/14 01:43:09;;;;;;;3.42;0.90;;;;;;;10.19;100.00;100009.13;5101143;27;20379;-62
2022/06/14 01:45:54;;;;;;;2.42;0.88;;;;;;;10.17;100.00;100004.78;5098464;27;20657;-62
2022/06/14 01:52:33;;;;;;;2.83;0.80;;;;;;;9.99;100.00;100016.50;5103358;27;20035;-63
2022/06/14 01:55:22;;;;;;;1.80;0.85;;;;;;;9.94;100.00;100020.94;5098982;28;20122;-62
2022/06/14 01:58:16;;;;;;;2.10;1.02;;;;;;;9.80;100.00;100021.22;5099251;27;20044;-62
2022/06/14 02:01:21;;;;;;;2.80;0.88;;;;;;;9.66;100.00;100024.09;5101550;27;20040;-63
2022/06/14 02:07:38;;;;;;;5.18;1.70;;;;;;;9.42;100.00;100035.81;5102324;28;20044;-63
2022/06/14 02:10:32;;;;;;;1.33;1.08;;;;;;;9.52;100.00;100031.28;5098450;28;20047;-63
2022/06/14 02:13:19;;;;;;;2.92;1.23;;;;;;;9.42;100.00;100035.81;5105392;27;20031;-63
2022/06/14 02:16:40;;;;;;;1.88;1.08;;;;;;;9.31;100.00;100038.63;5101957;28;20428;-63
2022/06/14 02:19:33;;;;;;;3.72;1.48;;;;;;;9.19;100.00;100032.72;5102880;27;20060;-63
2022/06/14 02:22:22;;;;;;;3.88;1.27;;;;;;;9.14;100.00;100045.88;5098121;28;20048;-63
2022/06/14 02:25:12;;;;;;;3.47;1.00;;;;;;;9.08;100.00;100030.28;5100839;28;20131;-63
2022/06/14 02:28:02;;;;;;;1.38;0.80;;;;;;;9.09;100.00;100048.53;5101545;28;20285;-63
2022/06/14 02:31:00;;;;;;;3.33;1.55;;;;;;;9.01;100.00;100041.72;5100884;28;20154;-63
2022/06/14 02:33:58;;;;;;;2.35;1.30;;;;;;;8.84;100.00;100036.75;5113247;27;20035;-62
2022/06/14 02:36:52;;;;;;;2.65;1.10;;;;;;;8.95;100.00;100044.41;5098705;28;20068;-63
2022/06/14 02:39:47;;;;;;;4.57;1.17;;;;;;;8.96;100.00;100047.00;5100464;28;20572;-62
2022/06/14 02:42:41;;;;;;;4.57;1.30;;;;;;;8.83;100.00;100051.53;5117442;28;20147;-63
2022/06/14 02:45:43;;;;;;;4.70;1.50;;;;;;;8.77;100.00;100056.84;5105166;28;20040;-63
2022/06/14 02:48:36;;;;;;;3.67;1.60;;;;;;;8.80;100.00;100055.94;5103580;28;20047;-63
2022/06/14 02:51:58;;;;;;;7.47;1.30;;;;;;;8.77;100.00;100067.28;5107529;28;20047;-62
2022/06/14 02:55:09;;;;;;;4.03;1.40;;;;;;;8.78;100.00;100066.41;5105975;28;20115;-63
2022/06/14 02:58:27;;;;;;;8.95;1.95;;;;;;;8.78;100.00;100068.19;5107349;28;20046;-62
2022/06/14 03:01:46;;;;;;;2.35;1.50;;;;;;;8.78;100.00;100076.00;5115975;28;20046;-62
2022/06/14 03:05:05;;;;;;;8.23;1.80;;;;;;;8.84;100.00;100078.53;5105219;28;20096;-62
2022/06/14 03:08:17;;;;;;;2.25;1.48;;;;;;;8.86;100.00;100069.78;5114246;28;20108;-62
2022/06/14 03:11:45;;;;;;;5.68;1.77;;;;;;;8.84;100.00;100082.00;5109739;28;20051;-63
2022/06/14 03:15:07;;;;;;;3.80;1.45;;;;;;;8.87;100.00;100087.19;5100656;28;20469;-62
2022/06/14 03:18:27;;;;;;;6.93;1.90;;;;;;;8.90;100.00;100088.88;5107180;27;20194;-62
2022/06/14 03:21:43;;;;;;;4.20;1.58;;;;;;;8.87;100.00;100084.59;5107604;27;20048;-62
2022/06/14 03:24:39;;;;;;;5.07;1.63;;;;;;;8.90;100.00;100088.88;5104234;27;20075;-62
2022/06/14 03:27:33;;;;;;;4.45;1.77;;;;;;;8.96;100.00;100093.16;5102324;27;20039;-62
2022/06/14 03:30:24;;;;;;;4.28;1.92;;;;;;;8.96;100.00;100099.25;5108665;27;20051;-62
2022/06/14 03:33:15;;;;;;;2.13;1.42;;;;;;;9.00;100.00;100110.50;5110004;27;20043;-62
2022/06/14 03:35:59;;;;;;;2.30;1.20;;;;;;;9.13;100.00;100104.22;5105161;28;20040;-62
2022/06/14 03:38:53;;;;;;;3.83;1.52;;;;;;;9.29;100.00;100108.34;5101366;28;20054;-62
2022/06/14 03:41:43;;;;;;;3.70;1.52;;;;;;;9.39;100.00;100110.81;5100568;28;20040;-61
2022/06/14 03:44:30;;;;;;;2.20;1.30;;;;;;;9.51;100.00;100108.03;5101793;28;20051;-62
2022/06/14 03:47:15;;;;;;;3.00;1.35;;;;;;;9.56;100.00;100108.81;5104340;27;20047;-62
2022/06/14 03:50:03;;;;;;;3.08;1.30;;;;;;;9.69;100.00;100107.72;5106542;27;20043;-62
2022/06/14 03:53:06;;;;;;;4.20;2.08;;;;;;;9.71;100.00;100108.56;5107239;28;20548;-62
2022/06/14 03:56:09;;;;;;;2.75;1.15;;;;;;;9.92;100.00;100111.72;5105173;28;20039;-62
2022/06/14 03:59:10;;;;;;;3.27;1.00;;;;;;;9.84;100.00;100102.22;5118179;27;20513;-62
2022/06/14 04:02:22;;;;;;;3.45;1.08;;;;;;;9.93;100.00;100121.28;5106995;28;20036;-62
2022/06/14 04:05:19;;;;;;;4.47;0.90;;;;;;;9.90;100.00;100119.56;5109849;28;20032;-62
2022/06/14 04:08:28;;;;;;;2.03;1.15;;;;;;;10.22;100.00;100105.06;5105375;27;20080;-63
2022/06/14 04:11:17;;;;;;;1.83;0.95;;;;;;;11.16;100.00;100119.72;5109122;27;20934;-62
2022/06/14 04:14:11;;;;;;;2.05;1.10;;;;;;;11.79;100.00;100121.72;5104358;28;20165;-62
2022/06/14 04:17:38;;;;;;;2.58;0.80;;;;;;;12.35;100.00;100114.16;5105865;28;20051;-63
2022/06/14 04:20:38;;;;;;;1.52;1.02;;;;;;;12.79;100.00;100106.78;5108571;27;20051;-63
2022/06/14 04:23:28;;;;;;;4.53;1.23;;;;;;;13.17;100.00;100106.53;5108689;27;20035;-63
2022/06/14 04:26:22;;;;;;;2.13;1.00;;;;;;;13.33;100.00;100132.34;5108331;27;20064;-62
2022/06/14 04:29:21;;;;;;;1.38;0.93;;;;;;;13.56;100.00;100130.75;5108715;27;20043;-63
2022/06/14 04:32:30;;;;;;;2.55;0.88;;;;;;;13.29;100.00;100125.47;5109077;27;20043;-62
2022/06/14 04:35:15;;;;;;;1.73;0.55;;;;;;;13.55;100.00;100129.00;5111092;27;20043;-62
2022/06/14 04:38:15;;;;;;;1.98;0.73;;;;;;;13.98;100.00;100131.09;5104363;28;20486;-63
2022/06/14 04:41:31;;;;;;;2.40;0.88;;;;;;;13.90;100.00;100127.00;5108613;28;20052;-63
2022/06/14 04:44:24;;;;;;;3.08;0.90;;;;;;;14.47;100.00;100126.75;5110105;28;20371;-63
2022/06/14 04:47:28;;;;;;;3.28;0.75;;;;;;;14.45;100.00;100123.31;5122005;27;20126;-63
2022/06/14 04:50:29;;;;;;;3.30;0.98;;;;;;;15.09;100.00;100121.88;5101036;27;20055;-62
2022/06/14 04:53:31;;;;;;;0.93;0.55;;;;;;;15.08;100.00;100125.41;5106943;28;20047;-64
2022/06/14 04:56:22;;;;;;;1.55;0.50;;;;;;;15.14;100.00;100130.44;5102087;28;20040;-64
2022/06/14 04:59:12;;;;;;;2.63;1.05;;;;;;;15.01;100.00;100119.50;5101132;28;20111;-63
2022/06/14 05:02:04;;;;;;;1.95;0.65;;;;;;;14.51;100.00;100124.03;5126951;27;20356;-63
2022/06/14 05:04:58;;;;;;;3.22;0.43;;;;;;;14.57;100.00;100131.72;5125560;27;20043;-62
2022/06/14 05:07:45;;;;;;;1.73;0.38;;;;;;;14.76;100.00;100126.66;5130733;27;20394;-63
2022/06/14 05:10:40;;;;;;;3.13;0.70;;;;;;;14.55;100.00;100129.13;5100345;28;20036;-62
2022/06/14 05:13:40;;;;;;;1.60;0.65;;;;;;;14.37;100.00;100114.84;5103996;28;20062;-62
2022/06/14 05:17:00;;;;;;;1.83;0.40;;;;;;;14.41;100.00;100126.97;5107717;28;20139;-62
2022/06/14 05:19:55;;;;;;;1.63;0.22;;;;;;;14.26;100.00;100120.47;5098399;28;20051;-62
2022/06/14 05:22:44;;;;;;;0.88;0.38;;;;;;;14.08;100.00;100120.28;5101195;28;20094;-62
2022/06/14 05:25:54;;;;;;;2.45;0.70;;;;;;;14.01;100.00;100117.84;5104779;28;20054;-63
2022/06/14 05:28:56;;;;;;;1.30;0.40;;;;;;;14.12;100.00;100120.09;5100476;28;20059;-62
2022/06/14 05:32:10;;;;;;;0.70;0.20;;;;;;;14.19;100.00;100128.63;5102813;28;20390;-62
2022/06/14 05:35:16;;;;;;;1.95;0.43;;;;;;;14.01;100.00;100130.16;5079289;28;20148;-62
2022/06/14 05:38:25;;;;;;;3.70;0.50;;;;;;;14.58;100.00;100129.03;5103864;28;20048;-62
2022/06/14 05:41:36;;;;;;;1.90;0.52;;;;;;;14.71;100.00;100116.25;5098467;28;20645;-59
2022/06/14 05:44:31;;;;;;;1.88;0.30;;;;;;;15.17;100.00;100125.06;5098018;28;20662;-59
2022/06/14 05:47:26;;;;;;;0.85;0.43;;;;;;;15.89;100.00;100128.34;5101431;28;20043;-60
2022/06/14 05:50:23;;;;;;;1.42;0.32;;;;;;;15.29;100.00;100129.00;5101645;27;20047;-60
2022/06/14 05:53:18;;;;;;;1.83;0.38;;;;;;;15.55;100.00;100136.75;5100749;28;20044;-60
2022/06/14 05:56:09;;;;;;;3.92;0.22;;;;;;;16.61;100.00;100129.63;5098151;27;20074;-60
2022/06/14 05:59:05;;;;;;;1.38;0.40;;;;;;;17.36;100.00;100128.84;5100135;28;20051;-60
2022/06/14 06:02:14;;;;;;;1.65;0.20;;;;;;;17.40;100.00;100133.03;5100355;27;20050;-59
2022/06/14 06:05:12;;;;;;;1.23;0.32;;;;;;;17.77;100.00;100133.06;5098616;28;20070;-60
2022/06/14 06:08:12;;;;;;;0.77;0.30;;;;;;;18.10;100.00;100139.34;5103376;27;20032;-60
2022/06/14 06:11:03;;;;;;;0.98;0.45;;;;;;;18.43;100.00;100139.38;5100169;28;20050;-60
2022/06/14 06:13:54;;;;;;;1.48;0.22;;;;;;;18.82;100.00;100135.59;5101862;27;20062;-60
2022/06/14 06:19:46;;;;;;;2.40;0.50;;;;;;;18.03;100.00;100137.06;5105457;28;20439;-60
2022/06/14 06:23:05;;;;;;;1.95;0.68;;;;;;;18.32;100.00;100139.06;5109832;27;20048;-60
2022/06/14 06:25:53;;;;;;;4.32;0.60;;;;;;;17.77;100.00;100141.00;5104494;28;20044;-64
2022/06/14 06:28:45;;;;;;;2.97;0.55;;;;;;;17.47;100.00;100137.09;5106157;28;20063;-63
2022/06/14 06:31:34;;;;;;;3.28;0.75;;;;;;;17.90;100.00;100144.75;5104104;28;20383;-66
2022/06/14 06:34:19;;;;;;;2.20;0.20;;;;;;;17.15;100.00;100143.94;5106186;28;20043;-62
2022/06/14 06:37:14;;;;;;;2.00;0.40;;;;;;;17.56;100.00;100143.75;5106299;28;20040;-63
2022/06/14 06:40:03;;;;;;;3.75;0.38;;;;;;;17.82;100.00;100150.44;5104116;28;20036;-63
2022/06/14 06:42:56;;;;;;;3.45;0.52;;;;;;;17.42;100.00;100148.84;5103022;28;20441;-63
2022/06/14 06:45:45;;;;;;;2.38;0.47;;;;;;;16.90;100.00;100149.53;5106572;28;20044;-62
2022/06/14 06:48:44;;;;;;;2.63;0.47;;;;;;;16.81;100.00;100152.56;5105600;27;20504;-64
2022/06/14 06:51:39;;;;;;;3.60;0.40;;;;;;;17.52;100.00;100151.00;5108658;28;20040;-64
2022/06/14 06:54:31;;;;;;;2.53;0.70;;;;;;;19.05;100.00;100142.28;5108843;28;20398;-61
2022/06/14 06:57:20;;;;;;;2.30;0.40;;;;;;;18.57;100.00;100149.25;5117703;27;20039;-62
2022/06/14 07:00:07;;;;;;;2.67;0.52;;;;;;;18.10;100.00;100141.09;5113030;28;20485;-63
2022/06/14 07:02:58;;;;;;;4.07;0.50;;;;;;;17.30;100.00;100158.25;5120785;27;20043;-63
2022/06/14 07:05:57;;;;;;;5.35;0.30;;;;;;;17.77;100.00;100151.59;5109031;28;20470;-62
2022/06/14 07:09:34;;;;;;;5.47;0.50;;;;;;;18.96;100.00;100157.88;5112141;28;20067;-63
2022/06/14 07:12:29;;;;;;;0.60;0.30;;;;;;;20.04;100.00;100150.88;5109077;28;20063;-63
2022/06/14 07:15:24;;;;;;;2.45;0.40;;;;;;;19.66;100.00;100150.44;5102574;28;20064;-64
2022/06/14 07:18:19;;;;;;;3.95;0.38;;;;;;;20.38;94.27;100146.22;5103484;27;20490;-64
2022/06/14 07:21:09;;;;;;;3.92;0.40;;;;;;;20.05;92.22;100145.50;5102205;27;20040;-65
2022/06/14 07:24:03;;;;;;;1.88;0.40;;;;;;;20.42;90.75;100151.25;5093427;27;20097;-64
2022/06/14 07:26:56;;;;;;;2.03;0.20;;;;;;;20.54;90.01;100161.19;5094548;27;20035;-65
2022/06/14 07:29:48;;;;;;;1.52;0.40;;;;;;;21.29;88.92;100146.81;5101909;27;20055;-64
2022/06/14 07:32:38;;;;;;;4.15;0.60;;;;;;;20.56;90.06;100149.59;5100342;27;20111;-67
2022/06/14 07:35:33;;;;;;;4.95;0.32;;;;;;;19.81;93.28;100158.38;5103834;27;20035;-68
2022/06/14 07:38:33;;;;;;;3.70;0.32;;;;;;;19.19;92.53;100151.28;5101268;28;20036;-65
2022/06/14 07:41:43;;;;;;;2.65;0.47;;;;;;;19.61;89.62;100156.00;5103080;28;20043;-63
2022/06/14 07:44:40;;;;;;;2.72;0.68;;;;;;;20.52;89.37;100152.44;5102037;27;20097;-67
2022/06/14 07:47:43;;;;;;;2.33;0.30;;;;;;;20.36;89.59;100159.59;5105686;27;20040;-65
2022/06/14 07:50:33;;;;;;;1.60;0.22;;;;;;;19.76;86.86;100154.28;5103508;28;20059;-65
2022/06/14 07:53:29;;;;;;;1.52;0.50;;;;;;;21.26;84.89;100142.53;5108585;27;20039;-65
2022/06/14 07:56:19;;;;;;;3.83;0.45;;;;;;;22.14;85.04;100143.00;5109255;27;20070;-64
2022/06/14 07:59:14;;;;;;;2.63;0.45;;;;;;;21.13;87.12;100142.47;5094542;28;20040;-65
2022/06/14 08:02:01;;;;;;;1.83;0.50;;;;;;;21.42;86.22;100147.75;5129789;27;20048;-65
2022/06/14 08:05:18;;;;;;;1.58;0.20;;;;;;;21.84;80.69;100145.88;5102114;28;20040;-66
2022/06/14 08:08:07;;;;;;;0.70;0.20;;;;;;;21.37;82.55;100116.06;5092509;27;20047;-66
2022/06/14 08:10:57;;;;;;;1.63;0.30;;;;;;;19.57;86.97;100143.84;5100936;28;20044;-64
2022/06/14 08:13:50;;;;;;;1.77;0.35;;;;;;;19.79;88.93;100149.66;5103689;27;20481;-65
2022/06/14 08:16:35;;;;;;;1.40;0.30;;;;;;;18.92;86.33;100158.03;5107086;27;20039;-65
2022/06/14 08:19:26;;;;;;;2.40;0.40;;;;;;;18.96;87.64;100158.72;5103732;28;20051;-63
2022/06/14 08:22:25;;;;;;;2.15;0.35;;;;;;;18.64;89.79;100158.59;5106892;27;20211;-62
2022/06/14 08:25:16;;;;;;;3.15;0.30;;;;;;;20.40;85.79;100152.28;5103873;27;20047;-63
2022/06/14 08:28:06;;;;;;;2.28;0.52;;;;;;;20.52;84.54;100152.44;5107667;28;20081;-65
2022/06/14 08:31:00;;;;;;;4.97;0.32;;;;;;;20.00;86.02;100149.34;5104040;27;20036;-63
2022/06/14 08:33:59;;;;;;;1.65;0.30;;;;;;;19.76;85.60;100143.66;5102026;27;20499;-64
2022/06/14 08:36:55;;;;;;;3.38;0.20;;;;;;;18.44;90.50;100150.84;5103715;28;20044;-64
2022/06/14 08:39:48;;;;;;;4.78;0.30;;;;;;;18.36;91.38;100151.25;5103849;28;20031;-65
2022/06/14 08:42:41;;;;;;;2.72;0.35;;;;;;;17.84;92.86;100147.72;5136290;27;20131;-64
2022/06/14 08:45:43;;;;;;;1.45;0.52;;;;;;;17.99;92.88;100160.22;5108640;27;20118;-65
2022/06/14 08:48:43;;;;;;;2.28;0.30;;;;;;;17.94;90.62;100160.44;5107673;28;20036;-64
2022/06/14 08:51:37;;;;;;;6.40;0.50;;;;;;;17.63;93.85;100157.56;5103381;28;20044;-63
2022/06/14 08:54:42;;;;;;;2.63;0.35;;;;;;;18.43;94.34;100150.00;5102105;28;20059;-64
2022/06/14 08:57:52;;;;;;;2.03;0.43;;;;;;;18.30;92.11;100156.88;5102653;27;20932;-64
2022/06/14 09:00:36;;;;;;;2.58;0.30;;;;;;;19.38;89.83;100150.19;5100883;27;20039;-64
2022/06/14 09:03:49;;;;;;;0.98;0.40;;;;;;;18.92;90.68;100152.72;5102792;28;20440;-64
2022/06/14 09:06:57;;;;;;;3.45;0.20;;;;;;;18.67;91.78;100144.31;5103359;28;20036;-62
2022/06/14 09:10:00;;;;;;;3.08;0.52;;;;;;;18.81;92.00;100144.47;5102129;28;20032;-61
2022/06/14 09:12:59;;;;;;;2.10;0.30;;;;;;;18.78;92.91;100130.50;5100496;28;20047;-62
2022/06/14 09:16:19;;;;;;;0.80;0.20;;;;;;;18.85;93.66;100145.19;5102565;27;20474;-64
2022/06/14 09:19:13;;;;;;;1.15;0.30;;;;;;;19.37;90.21;100140.50;5099889;28;20047;-63
2022/06/14 09:22:24;;;;;;;1.58;0.30;;;;;;;20.14;86.63;100141.41;5102577;28;20040;-63
2022/06/14 09:26:00;;;;;;;2.38;0.45;;;;;;;20.61;83.50;100137.72;5129607;27;20146;-65
2022/06/14 09:29:09;;;;;;;3.40;1.00;;;;;;;20.88;82.65;100136.97;5080575;28;20112;-64
2022/06/14 09:31:56;;;;;;;1.48;0.50;;;;;;;22.00;80.51;100137.72;5103650;28;20731;-63
2022/06/14 09:35:10;;;;;;;1.92;0.30;;;;;;;20.05;86.11;100148.16;5109062;27;20043;-62
2022/06/14 09:38:13;;;;;;;2.85;0.38;;;;;;;19.05;86.45;100138.78;5105334;28;20463;-65
2022/06/14 09:41:16;;;;;;;1.38;0.20;;;;;;;18.77;89.99;100137.63;5110253;27;20040;-63
2022/06/14 09:44:21;;;;;;;2.10;0.47;;;;;;;19.74;84.85;100138.44;5105412;28;20036;-62
2022/06/14 09:47:16;;;;;;;0.65;0.45;;;;;;;20.53;82.25;100122.22;5095297;28;20462;-63
2022/06/14 09:50:09;;;;;;;1.88;0.30;;;;;;;20.24;82.36;100139.91;5106284;28;20058;-62
2022/06/14 09:53:15;;;;;;;2.25;0.30;;;;;;;20.37;80.45;100137.38;5106262;27;20386;-61
2022/06/14 09:56:27;;;;;;;3.08;0.40;;;;;;;21.02;80.45;100119.16;5110290;27;20031;-61
2022/06/14 09:59:17;;;;;;;2.42;0.40;;;;;;;22.06;79.02;100132.81;5104166;28;20062;-62
2022/06/14 10:02:39;;;;;;;2.47;0.38;;;;;;;21.18;78.09;100134.16;5112537;27;20038;-62
2022/06/14 10:05:33;;;;;;;2.38;0.13;;;;;;;20.54;79.68;100128.41;5110106;27;20385;-63
2022/06/14 10:08:28;;;;;;;2.50;0.40;;;;;;;20.07;81.33;100140.06;5108664;27;20039;-65
2022/06/14 10:11:25;;;;;;;3.47;0.50;;;;;;;20.14;82.80;100137.91;5104096;28;20039;-62
2022/06/14 10:14:27;;;;;;;2.33;0.40;;;;;;;20.29;79.67;100135.19;5107559;27;20052;-67
2022/06/14 10:17:36;;;;;;;1.45;0.40;;;;;;;20.59;74.64;100134.28;5109311;28;20442;-65
2022/06/14 10:20:39;;;;;;;1.70;0.20;;;;;;;19.33;79.47;100127.47;5115319;27;20130;-63
2022/06/14 10:23:45;;;;;;;3.38;0.30;;;;;;;18.93;81.16;100142.97;5109202;27;20040;-66
2022/06/14 10:29:54;;;;;;;2.33;0.43;;;;;;;19.03;82.23;100125.59;5104660;28;20056;-66
2022/06/14 10:32:48;;;;;;;2.25;0.38;;;;;;;18.73;81.16;100117.50;5104929;28;20417;-63
2022/06/14 10:35:47;;;;;;;1.67;0.30;;;;;;;20.52;78.58;100117.00;5112490;28;20043;-63
2022/06/14 10:38:57;;;;;;;0.40;0.10;;;;;;;21.27;76.88;100122.94;5117740;28;20042;-62
2022/06/14 10:41:45;;;;;;;0.73;0.10;;;;;;;19.90;71.72;100122.47;5113427;28;20444;-63
2022/06/14 10:44:35;;;;;;;5.47;0.63;;;;;;;19.64;75.11;100123.97;5101990;28;20048;-65
2022/06/14 10:47:42;;;;;;;0.95;0.10;;;;;;;19.64;76.16;100125.78;5106463;28;20184;-64
2022/06/14 10:50:32;;;;;;;3.72;0.30;;;;;;;18.85;77.85;100130.13;5102946;28;20382;-64
2022/06/14 10:53:41;;;;;;;1.15;0.40;;;;;;;18.40;78.55;100136.03;5100692;28;20036;-64
2022/06/14 10:56:52;;;;;;;2.40;0.25;;;;;;;18.97;80.07;100131.22;5104483;28;20074;-65
2022/06/14 11:00:02;;;;;;;2.63;0.40;;;;;;;19.70;77.76;100123.63;5107039;28;20043;-62
2022/06/14 11:03:19;;;;;;;1.23;0.40;;;;;;;20.05;78.68;100118.91;5106096;28;20039;-66
2022/06/14 11:06:42;;;;;;;3.78;0.38;;;;;;;21.31;76.44;100116.44;5107485;28;20093;-63
2022/06/14 11:09:46;;;;;;;2.33;0.28;;;;;;;21.77;67.55;100113.44;5104464;28;20036;-62
2022/06/14 11:12:37;;;;;;;1.70;0.25;;;;;;;21.96;71.03;100109.56;5107871;28;20039;-62
2022/06/14 11:16:02;;;;;;;1.27;0.20;;;;;;;20.89;71.09;100114.72;5104292;28;20382;-64
2022/06/14 11:18:53;;;;;;;2.17;0.20;;;;;;;20.34;72.25;100118.94;5104498;28;20036;-63
2022/06/14 11:21:55;;;;;;;1.13;0.30;;;;;;;21.14;64.77;100120.19;5110911;28;20130;-63
2022/06/14 11:24:47;;;;;;;2.10;0.32;;;;;;;21.87;64.30;100108.34;5105733;28;20051;-62
2022/06/14 11:27:40;;;;;;;1.88;0.22;;;;;;;22.97;59.80;100108.75;5103791;28;20068;-64
2022/06/14 11:30:55;;;;;;;1.00;0.20;;;;;;;22.86;63.73;100090.78;5099350;28;20047;-62
2022/06/14 11:34:34;;;;;;;2.40;0.20;;;;;;;21.56;62.14;100097.06;5095929;28;20071;-63
2022/06/14 11:37:37;;;;;;;1.15;0.15;;;;;;;20.47;63.51;100109.28;5021309;28;20163;-64
2022/06/14 11:40:33;;;;;;;3.22;0.75;;;;;;;21.25;60.24;100114.16;5111591;27;20584;-62
2022/06/14 11:43:27;;;;;;;0.85;0.20;;;;;;;22.00;59.39;100111.94;5103992;27;20043;-63
2022/06/14 11:46:23;;;;;;;4.88;0.40;;;;;;;21.90;58.91;100119.69;5105140;27;20032;-63
2022/06/14 11:49:32;;;;;;;5.30;0.30;;;;;;;22.51;58.26;100100.44;5106405;27;20044;-62
2022/06/14 11:52:37;;;;;;;0.80;0.10;;;;;;;23.18;54.33;100111.69;5104781;28;20047;-63
2022/06/14 11:55:35;;;;;;;1.48;0.20;;;;;;;21.57;57.98;100112.09;5106009;27;20043;-63
2022/06/14 11:59:01;;;;;;;1.88;0.40;;;;;;;22.20;59.04;100113.25;5100525;27;20048;-63
2022/06/14 12:02:04;;;;;;;1.83;0.30;;;;;;;21.23;57.76;100116.94;5093133;27;20074;-62
2022/06/14 12:04:57;;;;;;;1.98;0.30;;;;;;;22.26;56.33;100117.31;5104867;28;20048;-67
2022/06/14 12:08:08;;;;;;;1.50;0.10;;;;;;;21.73;54.28;100114.63;5100723;27;20047;-62
2022/06/14 12:11:19;;;;;;;2.08;0.10;;;;;;;20.86;58.72;100121.06;5081629;27;20059;-63
2022/06/14 12:14:36;;;;;;;3.33;0.20;;;;;;;21.05;59.87;100122.59;5104354;28;20096;-62
2022/06/14 12:17:39;;;;;;;0.90;0.20;;;;;;;22.30;54.89;100121.50;5107120;28;20560;-61
2022/06/14 12:20:26;;;;;;;2.33;0.30;;;;;;;21.22;55.68;100122.34;5104525;28;20498;-63
2022/06/14 12:23:14;;;;;;;3.33;0.13;;;;;;;20.11;58.69;100124.78;5103475;28;20581;-61
2022/06/14 12:26:40;;;;;;;2.17;0.30;;;;;;;21.38;55.47;100123.09;5106208;27;20044;-62
2022/06/14 12:29:33;;;;;;;1.90;0.30;;;;;;;21.80;56.57;100110.56;5106192;28;20520;-62
2022/06/14 12:32:25;;;;;;;2.88;0.10;;;;;;;21.40;57.51;100118.53;5107260;27;20040;-64
2022/06/14 12:35:24;;;;;;;0.93;0.10;;;;;;;20.74;59.26;100112.06;5105672;27;20152;-63
2022/06/14 12:38:23;;;;;;;1.70;0.30;;;;;;;20.10;61.48;100123.09;5112782;27;20035;-62
2022/06/14 12:41:12;;;;;;;2.05;0.22;;;;;;;19.48;59.41;100121.31;5108250;27;20043;-64
2022/06/14 12:44:26;;;;;;;2.75;0.30;;;;;;;19.90;58.00;100090.56;5109658;27;20067;-61
2022/06/14 12:47:25;;;;;;;3.20;0.30;;;;;;;19.66;59.52;100108.81;5107965;28;20039;-61
2022/06/14 12:50:16;;;;;;;1.83;0.40;;;;;;;19.79;60.75;100127.53;5105159;28;20891;-62
2022/06/14 12:53:14;;;;;;;1.42;0.20;;;;;;;20.58;54.81;100105.13;5103722;28;20036;-64
2022/06/14 12:56:12;;;;;;;1.02;0.17;;;;;;;21.82;58.64;100111.34;5108762;27;20043;-66
2022/06/14 12:59:03;;;;;;;2.97;0.43;;;;;;;21.77;53.63;100107.25;5100898;27;20123;-65
2022/06/14 13:02:34;;;;;;;1.50;0.57;;;;;;;21.09;56.43;100111.66;5103911;27;20047;-64
2022/06/14 13:05:24;;;;;;;0.73;0.10;;;;;;;19.90;57.98;100113.63;5029507;28;20282;-64
2022/06/14 13:08:31;;;;;;;1.02;0.10;;;;;;;19.97;59.36;100112.31;5040897;28;20067;-62
2022/06/14 13:11:49;;;;;;;0.40;0.10;;;;;;;20.01;60.06;100112.03;5109291;27;20036;-63
2022/06/14 13:15:15;;;;;;;2.78;0.10;;;;;;;19.79;58.66;100108.94;5102991;27;20044;-63
2022/06/14 13:18:25;;;;;;;4.22;0.30;;;;;;;19.31;59.32;100119.59;5114443;27;20114;-63
2022/06/14 13:21:47;;;;;;;1.30;0.22;;;;;;;20.38;59.51;100109.00;5097941;28;20050;-63
2022/06/14 13:24:58;;;;;;;2.58;0.50;;;;;;;19.93;58.57;100116.97;5102500;27;20051;-61
2022/06/14 13:28:11;;;;;;;2.15;0.47;;;;;;;19.43;60.44;100120.69;5101503;28;20466;-64
2022/06/14 13:31:34;;;;;;;4.23;0.30;;;;;;;19.74;60.22;100119.00;5102661;28;20393;-64
2022/06/14 13:34:37;;;;;;;1.25;0.20;;;;;;;19.59;58.06;100118.03;5107113;27;20518;-64
2022/06/14 13:37:41;;;;;;;1.45;0.45;;;;;;;19.41;59.49;100114.63;5102179;28;20036;-63
2022/06/14 13:40:29;;;;;;;1.38;0.30;;;;;;;19.32;62.30;100113.34;5102794;27;20047;-65
2022/06/14 13:43:32;;;;;;;2.92;0.38;;;;;;;19.37;61.14;100118.41;5105762;28;20066;-62
2022/06/14 13:46:31;;;;;;;;;;;;;;;19.59;64.24;100121.53;5105367;27;20085;-64
2022/06/14 13:49:39;;;;;;;2.25;0.10;;;;;;;19.24;62.72;100115.59;5107362;27;20007;-63
2022/06/14 13:52:34;;;;;;;1.50;0.30;;;;;;;19.76;62.82;100112.66;5102474;27;20051;-61
2022/06/14 13:55:43;;;;;;;0.98;0.10;;;;;;;20.38;60.91;100107.19;5105752;27;20271;-63
2022/06/14 13:59:04;;;;;;;1.13;0.20;;;;;;;19.75;60.44;100115.38;5104857;28;20036;-62
2022/06/14 14:02:03;;;;;;;0.95;0.20;;;;;;;19.65;61.43;100109.75;5102831;28;20032;-62
2022/06/14 14:05:03;;;;;;;3.53;0.30;;;;;;;19.08;60.92;100114.72;5128900;27;20048;-63